Time;durP1;ratioP1;P1;durP2;ratioP2;P2;SDS_P1;SDS_P2;PMS_P1;PMS_P2;Temp;Humidity;BMP_temperature;BMP_pressure;BME280_temperature;BME280_humidity;BME280_pressure;Samples;Min_cycle;Max_cycle;Signal;HPM_P1;HPM_P2
2024/01/09 00:00:53;;;;;;;6.85;6.35;;;;;;;0.51;76.73;94853.16;5117927;28;20199;-71
2024/01/09 00:03:20;;;;;;;6.30;5.80;;;;;;;0.51;76.68;94852.34;5117649;28;20637;-71
2024/01/09 00:05:47;;;;;;;6.40;6.00;;;;;;;0.51;76.50;94853.16;5138366;27;20183;-71
2024/01/09 00:08:14;;;;;;;7.20;6.70;;;;;;;0.47;76.50;94850.25;5122875;27;20187;-71
2024/01/09 00:10:41;;;;;;;6.40;6.00;;;;;;;0.46;77.02;94856.75;5121601;27;20714;-71
2024/01/09 00:13:08;;;;;;;6.53;6.10;;;;;;;0.42;77.01;94860.34;5121594;27;20283;-71
2024/01/09 00:15:35;;;;;;;6.55;6.05;;;;;;;0.39;76.82;94864.44;5122480;27;20252;-71
2024/01/09 00:18:03;;;;;;;6.63;6.20;;;;;;;0.40;77.19;94865.25;5122184;27;20191;-71
2024/01/09 00:20:31;;;;;;;6.13;5.72;;;;;;;0.39;76.84;94866.38;5121793;27;20266;-71
2024/01/09 00:22:57;;;;;;;6.22;5.82;;;;;;;0.40;76.92;94870.69;5122403;27;20190;-71
2024/01/09 00:25:24;;;;;;;6.43;6.03;;;;;;;0.41;77.12;94872.31;5121419;27;20286;-71
2024/01/09 00:27:51;;;;;;;6.35;5.95;;;;;;;0.38;76.94;94875.59;5121382;27;20260;-71
2024/01/09 00:30:19;;;;;;;7.05;6.55;;;;;;;0.32;77.32;94872.16;5121623;27;20191;-71
2024/01/09 00:32:48;;;;;;;7.03;6.53;;;;;;;0.34;77.02;94877.28;5121847;27;20187;-72
2024/01/09 00:35:18;;;;;;;7.20;6.70;;;;;;;0.33;77.26;94881.91;5121530;27;20290;-72
2024/01/09 00:37:44;;;;;;;6.70;6.20;;;;;;;0.28;77.19;94879.25;5121993;27;20231;-72
2024/01/09 00:40:11;;;;;;;7.10;6.60;;;;;;;0.25;77.76;94882.56;5121285;27;20610;-72
2024/01/09 00:42:38;;;;;;;7.18;6.60;;;;;;;0.22;77.08;94881.25;5121302;27;20203;-72
2024/01/09 00:45:07;;;;;;;6.90;6.40;;;;;;;0.21;77.75;94890.47;5121909;27;20203;-72
2024/01/09 00:47:34;;;;;;;6.90;6.40;;;;;;;0.20;77.49;94901.63;5139484;27;20213;-71
2024/01/09 00:50:01;;;;;;;7.32;6.72;;;;;;;0.20;77.09;94896.19;5121749;27;20522;-71
2024/01/09 00:52:29;;;;;;;6.95;6.45;;;;;;;0.17;77.24;94902.19;5121665;27;20232;-71
2024/01/09 00:54:56;;;;;;;6.78;6.28;;;;;;;0.11;77.52;94897.94;5120929;27;20215;-71
2024/01/09 00:57:23;;;;;;;6.95;6.45;;;;;;;0.01;77.70;94898.88;5120881;27;20199;-71
2024/01/09 00:59:50;;;;;;;6.60;6.20;;;;;;;0.01;77.91;94908.94;5121605;27;20268;-71
2024/01/09 01:02:17;;;;;;;6.35;5.88;;;;;;;-0.03;77.69;94909.50;5120731;27;20199;-71
2024/01/09 01:04:44;;;;;;;6.22;5.75;;;;;;;-0.03;78.33;94906.78;5121314;27;20279;-71
2024/01/09 01:07:11;;;;;;;6.30;5.90;;;;;;;-0.03;77.96;94909.50;5139209;27;20203;-72
2024/01/09 01:09:40;;;;;;;6.25;5.82;;;;;;;-0.05;78.06;94908.97;5121598;27;20203;-71
2024/01/09 01:12:07;;;;;;;5.75;5.35;;;;;;;-0.01;78.23;94907.28;5121053;27;20199;-71
2024/01/09 01:14:34;;;;;;;6.25;5.85;;;;;;;0.01;78.15;94907.03;5118537;27;20287;-71
2024/01/09 01:17:01;;;;;;;5.90;5.50;;;;;;;0.01;77.78;94908.94;5120369;27;20187;-71
2024/01/09 01:19:28;;;;;;;6.25;5.85;;;;;;;-0.02;77.09;94915.72;5121289;27;20224;-71
2024/01/09 01:21:55;;;;;;;6.03;5.53;;;;;;;-0.10;77.73;94917.19;5120432;27;20195;-71
2024/01/09 01:24:22;;;;;;;5.85;5.45;;;;;;;-0.13;78.00;94915.03;5120325;27;20210;-71
2024/01/09 01:26:52;;;;;;;6.55;6.05;;;;;;;-0.15;78.13;94914.50;5121104;27;20205;-71
2024/01/09 01:29:19;;;;;;;6.80;6.30;;;;;;;-0.15;78.18;94914.50;5121155;27;20215;-71
2024/01/09 01:31:46;;;;;;;6.40;5.90;;;;;;;-0.17;78.26;94919.44;5121019;27;20191;-71
2024/01/09 01:34:13;;;;;;;6.57;6.07;;;;;;;-0.17;78.40;94916.72;5120508;27;20594;-71
2024/01/09 01:36:40;;;;;;;6.63;6.15;;;;;;;-0.16;78.12;94920.25;5120320;27;20195;-72
2024/01/09 01:39:07;;;;;;;6.70;6.20;;;;;;;-0.16;78.23;94915.63;5120039;27;20202;-72
2024/01/09 01:41:35;;;;;;;6.72;6.22;;;;;;;-0.13;78.34;94919.66;5120007;27;20289;-72
2024/01/09 01:44:18;;;;;;;6.80;6.30;;;;;;;-0.06;78.37;94925.53;5120212;27;20195;-72
2024/01/09 01:46:46;;;;;;;6.60;6.20;;;;;;;-0.04;78.13;94929.59;5120164;27;20183;-72
2024/01/09 01:49:15;;;;;;;7.20;6.70;;;;;;;-0.03;78.12;94919.53;5120201;27;20184;-72
2024/01/09 01:51:43;;;;;;;6.88;6.38;;;;;;;-0.05;78.33;94924.44;5119738;27;20297;-72
2024/01/09 01:54:11;;;;;;;6.80;6.30;;;;;;;-0.01;78.67;94920.03;5119835;27;20219;-73
2024/01/09 01:56:38;;;;;;;6.35;5.93;;;;;;;-0.02;78.36;94926.56;5119918;27;20244;-72
2024/01/09 01:59:06;;;;;;;6.47;6.03;;;;;;;-0.04;78.04;94928.75;5120245;27;20195;-72
2024/01/09 02:01:34;;;;;;;6.18;5.78;;;;;;;-0.03;78.20;94928.47;5119796;27;20226;-72
2024/01/09 02:04:01;;;;;;;6.40;5.90;;;;;;;-0.04;78.39;94920.63;5120502;27;20584;-72
2024/01/09 02:06:28;;;;;;;6.30;5.90;;;;;;;-0.04;78.65;94932.31;5119425;27;20630;-72
2024/01/09 02:08:54;;;;;;;6.20;5.75;;;;;;;-0.04;78.82;94931.47;5119435;27;20199;-72
2024/01/09 02:11:21;;;;;;;6.32;5.93;;;;;;;-0.18;77.91;94936.81;5119741;27;20282;-70
2024/01/09 02:13:48;;;;;;;6.07;5.68;;;;;;;-0.19;78.46;94932.44;5119162;27;20231;-70
2024/01/09 02:16:16;;;;;;;6.93;6.43;;;;;;;-0.19;79.04;94928.94;5119406;27;20223;-70
2024/01/09 02:18:43;;;;;;;7.18;6.68;;;;;;;-0.19;79.12;94927.03;5119771;27;20255;-71
2024/01/09 02:21:10;;;;;;;7.50;6.90;;;;;;;-0.21;78.61;94939.28;5119743;27;20196;-71
2024/01/09 02:23:38;;;;;;;7.05;6.55;;;;;;;-0.19;78.76;94937.06;5120244;27;20244;-71
2024/01/09 02:26:05;;;;;;;6.95;6.45;;;;;;;-0.23;79.13;94931.41;5120142;27;20187;-71
2024/01/09 02:28:35;;;;;;;6.00;5.60;;;;;;;-0.19;78.96;94937.06;5119836;27;20195;-71
2024/01/09 02:31:04;;;;;;;6.28;5.80;;;;;;;-0.14;79.12;94935.13;5119603;27;20195;-72
2024/01/09 02:33:32;;;;;;;6.18;5.78;;;;;;;-0.14;79.29;94939.75;5119324;27;20215;-72
2024/01/09 02:35:58;;;;;;;6.85;6.35;;;;;;;-0.17;79.19;94938.41;5118966;27;20255;-72
2024/01/09 02:38:25;;;;;;;6.00;5.60;;;;;;;-0.14;79.48;94940.56;5118844;27;20195;-72
2024/01/09 02:40:52;;;;;;;6.25;5.85;;;;;;;-0.13;79.59;94942.16;5119748;27;20195;-71
2024/01/09 02:43:19;;;;;;;6.20;5.80;;;;;;;-0.08;79.84;94942.09;5119056;27;20260;-72
2024/01/09 02:45:46;;;;;;;6.80;6.30;;;;;;;-0.04;79.51;94937.72;5119282;27;20207;-72
2024/01/09 02:48:15;;;;;;;6.32;5.93;;;;;;;-0.09;79.08;94937.75;5119074;27;20243;-71
2024/01/09 02:50:42;;;;;;;6.47;6.00;;;;;;;-0.10;79.19;94938.88;5136954;27;20175;-71
2024/01/09 02:53:09;;;;;;;5.93;5.53;;;;;;;-0.14;79.06;94937.03;5118530;27;20207;-72
2024/01/09 02:55:36;;;;;;;6.75;6.25;;;;;;;-0.11;78.99;94936.44;5118450;27;20211;-72
2024/01/09 02:58:03;;;;;;;6.30;5.90;;;;;;;-0.09;78.85;94935.06;5119011;27;20199;-71
2024/01/09 03:00:31;;;;;;;6.95;6.45;;;;;;;-0.11;78.46;94936.44;5118298;27;20251;-72
2024/01/09 03:02:58;;;;;;;6.32;5.90;;;;;;;-0.12;79.17;94932.91;5119348;27;20191;-72
2024/01/09 03:05:27;;;;;;;6.93;6.43;;;;;;;-0.09;79.16;94937.75;5118966;27;20195;-72
2024/01/09 03:07:53;;;;;;;6.80;6.30;;;;;;;-0.11;78.88;94937.25;5118885;27;20207;-72
2024/01/09 03:10:21;;;;;;;6.43;5.95;;;;;;;-0.13;78.30;94944.06;5119016;27;20234;-72
2024/01/09 03:12:48;;;;;;;6.35;5.95;;;;;;;-0.13;78.93;94947.56;5118886;27;20214;-72
2024/01/09 03:15:15;;;;;;;6.18;5.78;;;;;;;-0.16;78.81;94945.44;5116551;27;20254;-72
2024/01/09 03:17:44;;;;;;;6.63;6.13;;;;;;;-0.16;79.10;94953.56;5118558;27;20192;-72
2024/01/09 03:20:12;;;;;;;6.60;6.10;;;;;;;-0.14;78.38;94948.69;5118702;27;20213;-71
2024/01/09 03:22:40;;;;;;;5.95;5.55;;;;;;;-0.11;78.40;94955.41;5118430;27;20187;-72
2024/01/09 03:25:07;;;;;;;6.22;5.82;;;;;;;-0.12;78.07;94957.31;5118612;27;20252;-72
2024/01/09 03:27:34;;;;;;;6.95;6.45;;;;;;;-0.11;78.17;94953.53;5119195;27;20209;-72
2024/01/09 03:30:02;;;;;;;6.40;5.90;;;;;;;-0.10;78.33;94959.75;5136300;27;20232;-72
2024/01/09 03:32:29;;;;;;;7.53;6.93;;;;;;;-0.14;78.18;94951.38;5118258;27;20222;-72
2024/01/09 03:34:56;;;;;;;6.15;5.75;;;;;;;-0.14;78.39;94951.38;5118201;28;20275;-71
2024/01/09 03:37:23;;;;;;;6.55;6.15;;;;;;;-0.15;78.18;94954.38;5118854;28;20256;-72
2024/01/09 03:39:51;;;;;;;6.88;6.38;;;;;;;-0.19;78.17;94964.97;5117896;28;20195;-72
2024/01/09 03:42:18;;;;;;;7.13;6.63;;;;;;;-0.23;77.93;94963.94;5118205;28;20576;-72
2024/01/09 03:44:46;;;;;;;7.18;6.68;;;;;;;-0.19;78.22;94961.47;5118178;28;20195;-72
2024/01/09 03:47:13;;;;;;;6.50;6.00;;;;;;;-0.18;78.18;94963.06;5118308;28;20193;-72
2024/01/09 03:49:40;;;;;;;6.75;6.25;;;;;;;-0.22;77.97;94965.56;5118313;28;20191;-71
2024/01/09 03:52:07;;;;;;;6.80;6.40;;;;;;;-0.24;78.17;94970.47;5119032;28;20198;-72
2024/01/09 03:54:34;;;;;;;6.53;6.03;;;;;;;-0.18;78.04;94977.47;5118336;28;20222;-71
2024/01/09 03:57:03;;;;;;;6.78;6.32;;;;;;;-0.17;78.22;94979.06;5118587;28;20247;-71
2024/01/09 03:59:30;;;;;;;6.90;6.40;;;;;;;-0.17;77.86;94986.41;5117980;28;20255;-71
2024/01/09 04:01:57;;;;;;;7.50;7.00;;;;;;;-0.15;77.64;94981.47;5118331;28;20191;-71
2024/01/09 04:04:24;;;;;;;7.80;7.20;;;;;;;-0.22;77.65;94995.38;5118536;28;20203;-71
2024/01/09 04:06:51;;;;;;;6.63;6.22;;;;;;;-0.25;77.59;94995.97;5117707;28;20199;-71
2024/01/09 04:09:18;;;;;;;7.63;7.03;;;;;;;-0.29;77.18;95003.88;5117688;28;20195;-71
2024/01/09 04:11:46;;;;;;;7.20;6.60;;;;;;;-0.32;77.61;95000.91;5118746;28;20326;-72
2024/01/09 04:14:15;;;;;;;7.63;7.03;;;;;;;-0.32;77.96;95004.44;5135485;28;20284;-71
2024/01/09 04:16:45;;;;;;;7.53;6.93;;;;;;;-0.33;77.89;95005.53;5118470;28;20315;-72
2024/01/09 04:19:12;;;;;;;7.70;7.10;;;;;;;-0.35;78.24;95007.72;5118201;28;20191;-73
2024/01/09 04:21:39;;;;;;;7.53;7.03;;;;;;;-0.30;78.84;95012.25;5117904;28;20216;-73
2024/01/09 04:24:06;;;;;;;7.40;6.80;;;;;;;-0.26;78.60;95016.81;5118534;28;20216;-73
2024/01/09 04:26:33;;;;;;;7.70;7.10;;;;;;;-0.22;78.49;95014.34;5117663;28;20568;-73
2024/01/09 04:29:00;;;;;;;7.15;6.63;;;;;;;-0.20;78.43;95014.88;5118173;28;20575;-73
2024/01/09 04:31:29;;;;;;;7.82;7.22;;;;;;;-0.23;77.86;95017.34;5118527;28;20207;-73
2024/01/09 04:33:56;;;;;;;7.95;7.38;;;;;;;-0.18;78.06;95017.28;5117815;28;20707;-73
2024/01/09 04:36:22;;;;;;;7.00;6.50;;;;;;;-0.17;77.71;95013.50;5118131;28;20223;-73
2024/01/09 04:38:49;;;;;;;7.28;6.78;;;;;;;-0.17;77.59;95022.44;5136161;28;20255;-73
2024/01/09 04:41:17;;;;;;;7.88;7.28;;;;;;;-0.17;77.61;95019.72;5117275;28;20688;-72
2024/01/09 04:43:46;;;;;;;7.60;7.03;;;;;;;-0.16;77.83;95031.38;5118049;28;20666;-73
2024/01/09 04:46:13;;;;;;;7.88;7.25;;;;;;;-0.15;78.08;95027.56;5117738;28;20268;-73
2024/01/09 04:48:41;;;;;;;10.45;9.68;;;;;;;-0.15;77.94;95033.78;5117943;28;20746;-72
2024/01/09 04:51:09;;;;;;;8.55;7.70;;;;;;;-0.13;77.82;95047.88;5117455;28;20199;-73
2024/01/09 04:53:36;;;;;;;7.60;7.10;;;;;;;-0.15;77.81;95047.34;5121123;27;20689;-73
2024/01/09 04:56:03;;;;;;;8.63;7.93;;;;;;;-0.15;77.71;95050.06;5121179;27;20309;-73
2024/01/09 04:58:30;;;;;;;8.18;7.47;;;;;;;-0.19;77.46;95053.63;5121119;27;20228;-70
2024/01/09 05:00:57;;;;;;;8.23;7.53;;;;;;;-0.19;77.83;95053.63;5121178;27;20574;-71
2024/01/09 05:03:24;;;;;;;10.85;9.95;;;;;;;-0.14;78.05;95056.31;5120856;27;20244;-70
2024/01/09 05:05:52;;;;;;;10.98;9.98;;;;;;;-0.14;77.75;95059.84;5120838;27;20677;-71
2024/01/09 05:08:19;;;;;;;11.50;10.50;;;;;;;-0.12;77.73;95056.81;5121761;27;20514;-71
2024/01/09 05:10:46;;;;;;;10.80;9.90;;;;;;;-0.11;77.59;95056.56;5120894;27;20206;-71
2024/01/09 05:13:13;;;;;;;11.73;10.73;;;;;;;-0.11;77.09;95044.88;5120927;27;20251;-71
2024/01/09 05:15:40;;;;;;;10.40;9.60;;;;;;;-0.12;77.06;95044.06;5118696;27;20295;-71
2024/01/09 05:18:08;;;;;;;9.77;8.98;;;;;;;-0.09;77.26;95031.84;5121676;27;20256;-71
2024/01/09 05:20:35;;;;;;;8.95;8.18;;;;;;;-0.08;77.17;95036.97;5121292;27;20209;-71
2024/01/09 05:23:04;;;;;;;7.70;7.20;;;;;;;-0.05;76.58;95035.59;5121019;27;20206;-71
2024/01/09 05:25:31;;;;;;;8.18;7.57;;;;;;;-0.06;76.76;95042.94;5120429;27;20191;-71
2024/01/09 05:27:58;;;;;;;8.32;7.72;;;;;;;-0.08;76.12;95044.31;5121592;27;20663;-71
2024/01/09 05:30:25;;;;;;;9.10;8.40;;;;;;;-0.08;76.18;95052.44;5120267;27;20253;-71
2024/01/09 05:32:52;;;;;;;9.60;8.80;;;;;;;-0.09;76.32;95051.63;5120832;27;20199;-71
2024/01/09 05:35:19;;;;;;;8.73;8.05;;;;;;;-0.11;75.87;95048.41;5120389;27;20305;-71
2024/01/09 05:37:46;;;;;;;8.77;8.07;;;;;;;-0.15;75.78;95046.53;5120993;27;20195;-71
2024/01/09 05:40:15;;;;;;;10.00;9.07;;;;;;;-0.15;76.04;95051.97;5120664;27;20195;-71
2024/01/09 05:42:43;;;;;;;14.95;13.45;;;;;;;-0.11;76.08;95061.97;5120898;27;20194;-79
2024/01/09 05:45:11;;;;;;;12.73;11.43;;;;;;;-0.07;76.20;95063.03;5120861;27;20671;-79
2024/01/09 05:47:38;;;;;;;12.30;11.07;;;;;;;-0.04;75.47;95056.19;5120723;27;20285;-78
2024/01/09 05:50:06;;;;;;;11.10;10.10;;;;;;;-0.04;74.86;95070.59;5121590;27;20202;-79
2024/01/09 05:52:37;;;;;;;11.30;10.45;;;;;;;-0.05;74.44;95079.00;5121218;27;20195;-79
2024/01/09 05:55:05;;;;;;;12.25;11.18;;;;;;;-0.05;74.23;95082.50;5121837;27;20211;-79
2024/01/09 05:57:33;;;;;;;8.63;7.93;;;;;;;-0.01;73.75;95082.75;5121691;27;20203;-79
2024/01/09 06:00:00;;;;;;;4.13;3.83;;;;;;;-0.13;71.22;95093.16;5120917;27;20199;-73
2024/01/09 06:02:27;;;;;;;3.35;3.15;;;;;;;-0.20;70.84;95104.34;5119165;27;20657;-70
2024/01/09 06:04:54;;;;;;;3.45;3.15;;;;;;;-0.20;71.14;95107.06;5120004;27;20195;-71
2024/01/09 06:07:22;;;;;;;3.33;3.03;;;;;;;-0.20;70.74;95117.88;5120200;27;20199;-71
2024/01/09 06:09:49;;;;;;;4.00;3.50;;;;;;;-0.22;70.69;95125.50;5120369;27;20183;-70
2024/01/09 06:12:16;;;;;;;4.20;3.47;;;;;;;-0.16;70.72;95143.34;5119765;27;20216;-71
2024/01/09 06:14:44;;;;;;;3.92;3.60;;;;;;;-0.27;69.79;95153.44;5119506;27;20279;-71
2024/01/09 06:17:12;;;;;;;3.30;3.10;;;;;;;-0.27;69.93;95158.88;5120485;27;20199;-71
2024/01/09 06:19:39;;;;;;;3.13;2.90;;;;;;;-0.23;69.74;95167.25;5120310;27;20292;-71
2024/01/09 06:22:07;;;;;;;2.53;2.38;;;;;;;-0.21;70.20;95173.22;5119719;27;20642;-71
2024/01/09 06:24:34;;;;;;;3.13;2.92;;;;;;;-0.30;69.83;95183.81;5119451;27;20507;-71
2024/01/09 06:27:01;;;;;;;3.65;3.30;;;;;;;-0.37;70.13;95196.88;5119840;27;20498;-71
2024/01/09 06:29:29;;;;;;;5.90;5.38;;;;;;;-0.29;70.39;95207.16;5119186;27;20191;-74
2024/01/09 06:31:58;;;;;;;7.93;7.13;;;;;;;-0.27;70.23;95201.44;5119589;27;20205;-74
2024/01/09 06:34:25;;;;;;;6.07;5.57;;;;;;;-0.20;70.49;95207.34;5137064;27;20272;-71
2024/01/09 06:36:52;;;;;;;5.03;4.63;;;;;;;-0.09;70.37;95217.03;5118960;27;20246;-72
2024/01/09 06:39:19;;;;;;;5.93;5.45;;;;;;;-0.12;70.10;95224.91;5119518;27;20191;-72
2024/01/09 06:41:46;;;;;;;4.88;4.45;;;;;;;-0.25;69.53;95253.47;5136948;27;20197;-72
2024/01/09 06:44:13;;;;;;;5.05;4.65;;;;;;;-0.41;70.44;95241.09;5136951;27;20179;-72
2024/01/09 06:46:41;;;;;;;6.50;5.90;;;;;;;-0.50;70.37;95251.72;5137407;27;20248;-72
2024/01/09 06:49:09;;;;;;;10.15;9.07;;;;;;;-0.43;69.54;95259.53;5119385;27;20203;-72
2024/01/09 06:51:36;;;;;;;14.75;12.88;;;;;;;-0.42;70.33;95261.97;5119300;27;20280;-72
2024/01/09 06:54:03;;;;;;;8.10;7.30;;;;;;;-0.52;70.36;95270.13;5119863;27;20272;-72
2024/01/09 06:56:30;;;;;;;5.47;5.07;;;;;;;-0.59;70.67;95272.34;5119299;27;20275;-72
2024/01/09 06:58:57;;;;;;;5.03;4.63;;;;;;;-0.70;71.41;95279.69;5118608;27;20259;-72
2024/01/09 07:01:24;;;;;;;3.83;3.63;;;;;;;-0.78;72.12;95285.69;5119429;27;20194;-72
2024/01/09 07:03:51;;;;;;;3.88;3.65;;;;;;;-0.88;71.56;95297.34;5118538;27;20195;-72
2024/01/09 07:06:19;;;;;;;4.50;4.20;;;;;;;-0.77;71.57;95304.34;5119310;27;20203;-72
2024/01/09 07:08:46;;;;;;;4.18;3.90;;;;;;;-1.01;72.74;95293.34;5118420;27;20822;-72
2024/01/09 07:11:14;;;;;;;4.50;4.25;;;;;;;-0.90;72.55;95296.03;5118586;27;20207;-72
2024/01/09 07:13:42;;;;;;;5.63;5.22;;;;;;;-0.84;72.40;95309.25;5131798;27;20294;-72
2024/01/09 07:16:09;;;;;;;5.38;4.97;;;;;;;-0.87;72.92;95303.56;5114259;28;20559;-72
2024/01/09 07:18:36;;;;;;;4.82;4.50;;;;;;;-1.01;72.87;95300.66;5115410;28;20200;-72
2024/01/09 07:21:03;;;;;;;5.10;4.80;;;;;;;-0.94;73.04;95305.75;5116023;28;20278;-72
2024/01/09 07:23:32;;;;;;;5.50;5.10;;;;;;;-0.84;72.91;95314.66;5115527;28;20203;-72
2024/01/09 07:25:59;;;;;;;5.88;5.47;;;;;;;-0.77;72.34;95314.38;5115050;28;20195;-72
2024/01/09 07:28:27;;;;;;;5.18;4.78;;;;;;;-0.34;75.26;95318.28;5114613;28;20203;-71
2024/01/09 07:30:56;;;;;;;4.88;4.43;;;;;;;-0.38;72.20;95319.94;5114722;28;20252;-71
2024/01/09 07:33:23;;;;;;;4.78;4.47;;;;;;;-0.42;71.73;95318.88;5115155;28;20226;-71
2024/01/09 07:35:50;;;;;;;4.75;4.45;;;;;;;-0.50;70.52;95325.69;5114985;28;20220;-71
2024/01/09 07:38:22;;;;;;;4.90;4.50;;;;;;;-0.71;70.67;95320.59;5115195;28;20203;-71
2024/01/09 07:40:50;;;;;;;5.43;4.95;;;;;;;-0.67;71.70;95332.50;5115068;28;20200;-71
2024/01/09 07:43:17;;;;;;;5.47;5.07;;;;;;;-0.58;71.50;95325.41;5115023;28;20191;-72
2024/01/09 07:45:44;;;;;;;5.95;5.45;;;;;;;-0.50;71.40;95327.59;5115419;28;20245;-72
2024/01/09 07:48:11;;;;;;;7.03;6.53;;;;;;;-0.42;70.88;95334.31;5114898;28;20236;-72
2024/01/09 07:50:38;;;;;;;6.15;5.55;;;;;;;-0.40;71.08;95340.25;5115393;28;20240;-72
2024/01/09 07:53:05;;;;;;;6.22;5.82;;;;;;;-0.39;71.24;95331.88;5115410;28;20195;-72
2024/01/09 07:55:32;;;;;;;6.35;5.85;;;;;;;-0.41;70.52;95330.53;5114787;28;20276;-72
2024/01/09 07:58:01;;;;;;;7.00;6.50;;;;;;;-0.47;70.21;95332.47;5114543;28;20291;-72
2024/01/09 08:00:32;;;;;;;6.43;5.93;;;;;;;-0.51;71.03;95326.78;5115209;28;20196;-72
2024/01/09 08:02:59;;;;;;;6.70;6.10;;;;;;;-0.56;70.70;95332.19;5115539;28;20230;-72
2024/01/09 08:05:26;;;;;;;7.47;6.88;;;;;;;-0.58;70.46;95336.25;5115518;28;20180;-72
2024/01/09 08:07:53;;;;;;;7.72;7.10;;;;;;;-0.59;70.60;95345.47;5116149;28;20191;-72
2024/01/09 08:10:20;;;;;;;8.88;8.13;;;;;;;-0.57;70.90;95344.13;5114748;28;20221;-72
2024/01/09 08:12:47;;;;;;;9.60;8.80;;;;;;;-0.54;70.41;95349.00;5115431;28;20207;-72
2024/01/09 08:15:16;;;;;;;6.72;6.22;;;;;;;-0.53;70.56;95357.94;5114391;28;20231;-72
2024/01/09 08:17:43;;;;;;;6.00;5.50;;;;;;;-0.50;70.50;95362.81;5114533;28;20226;-72
2024/01/09 08:20:11;;;;;;;7.63;7.03;;;;;;;-0.51;70.60;95363.88;5115118;28;20252;-72
2024/01/09 08:22:38;;;;;;;7.78;7.18;;;;;;;-0.53;70.27;95364.16;5114884;28;20602;-72
2024/01/09 08:25:07;;;;;;;9.35;8.60;;;;;;;-0.47;70.43;95367.69;5115208;28;20207;-72
2024/01/09 08:27:34;;;;;;;8.60;7.90;;;;;;;-0.46;70.74;95366.59;5118012;28;20244;-72
2024/01/09 08:30:02;;;;;;;10.15;9.30;;;;;;;-0.50;70.83;95376.34;5118665;28;20206;-72
2024/01/09 08:32:30;;;;;;;10.30;9.43;;;;;;;-0.49;71.04;95384.19;5118886;28;20192;-71
2024/01/09 08:34:57;;;;;;;12.50;11.50;;;;;;;-0.46;71.30;95382.84;5118101;28;20195;-71
2024/01/09 08:37:24;;;;;;;12.15;11.15;;;;;;;-0.43;71.06;95386.91;5118484;28;20216;-71
2024/01/09 08:39:51;;;;;;;10.95;10.05;;;;;;;-0.46;71.09;95387.47;5117924;28;20639;-71
2024/01/09 08:42:18;;;;;;;7.50;6.90;;;;;;;-0.44;70.84;95396.91;5118317;28;20225;-71
2024/01/09 08:44:45;;;;;;;6.65;6.15;;;;;;;-0.39;71.28;95393.41;5118378;28;20213;-71
2024/01/09 08:47:12;;;;;;;5.85;5.43;;;;;;;-0.38;70.65;95395.00;5117963;28;20203;-71
2024/01/09 08:49:41;;;;;;;5.93;5.53;;;;;;;-0.48;69.24;95393.13;5117992;28;20203;-71
2024/01/09 08:52:08;;;;;;;6.43;5.93;;;;;;;-0.62;68.54;95395.59;5117751;28;20745;-71
2024/01/09 08:54:35;;;;;;;8.60;7.90;;;;;;;-0.60;68.95;95401.56;5118623;28;20250;-72
2024/01/09 08:57:02;;;;;;;7.50;6.90;;;;;;;-0.76;68.78;95398.09;5118113;28;20215;-71
2024/01/09 08:59:29;;;;;;;6.60;6.00;;;;;;;-0.90;68.53;95394.31;5118116;28;20245;-72
2024/01/09 09:01:56;;;;;;;6.85;6.25;;;;;;;-1.05;68.68;95394.34;5118092;28;20253;-72
2024/01/09 09:04:23;;;;;;;8.07;7.38;;;;;;;-1.03;69.01;95397.56;5117453;28;20199;-75
2024/01/09 09:06:51;;;;;;;9.30;8.50;;;;;;;-1.02;69.47;95405.44;5118748;28;20260;-73
2024/01/09 09:09:19;;;;;;;5.72;5.32;;;;;;;-0.99;69.44;95401.34;5117622;28;20199;-74
2024/01/09 09:11:46;;;;;;;5.15;4.82;;;;;;;-0.99;69.93;95412.97;5117557;28;20213;-74
2024/01/09 09:14:13;;;;;;;4.88;4.47;;;;;;;-0.90;69.24;95407.84;5111823;28;20219;-74
2024/01/09 09:16:41;;;;;;;8.20;7.50;;;;;;;-0.90;69.72;95409.75;5118238;28;20218;-74
2024/01/09 09:19:08;;;;;;;9.77;8.98;;;;;;;-0.82;69.35;95409.19;5100983;28;20196;-74
2024/01/09 09:21:35;;;;;;;7.47;6.88;;;;;;;-0.81;69.11;95411.63;5100344;28;20195;-74
2024/01/09 09:24:04;;;;;;;8.20;7.60;;;;;;;-0.82;69.34;95411.91;5100717;28;20191;-74
2024/01/09 09:26:32;;;;;;;9.30;8.50;;;;;;;-0.73;69.27;95419.22;5100809;28;20195;-74
2024/01/09 09:28:59;;;;;;;10.00;9.20;;;;;;;-0.69;69.42;95419.47;5100170;28;20196;-74
2024/01/09 09:31:27;;;;;;;9.57;8.75;;;;;;;-0.66;69.42;95420.81;5101024;28;20199;-74
2024/01/09 09:33:54;;;;;;;8.55;7.85;;;;;;;-0.61;69.26;95431.66;5100073;28;20206;-74
2024/01/09 09:36:21;;;;;;;5.45;5.05;;;;;;;-0.63;68.51;95423.78;5099763;28;20211;-74
2024/01/09 09:38:52;;;;;;;5.82;5.32;;;;;;;-0.62;68.64;95427.31;5099860;28;20257;-74
2024/01/09 09:41:21;;;;;;;6.75;6.25;;;;;;;-0.63;69.13;95426.50;5099828;28;20200;-74
2024/01/09 09:43:50;;;;;;;14.88;13.63;;;;;;;-0.62;68.55;95430.00;5100405;28;20195;-73
2024/01/09 09:46:20;;;;;;;5.65;5.15;;;;;;;-0.65;67.83;95420.56;5100390;28;20196;-71
2024/01/09 09:48:49;;;;;;;7.43;6.82;;;;;;;-0.72;67.63;95422.72;5100390;28;20241;-71
2024/01/09 09:51:17;;;;;;;8.95;8.05;;;;;;;-0.70;67.73;95419.75;5100069;28;20237;-71
2024/01/09 09:53:44;;;;;;;10.77;9.77;;;;;;;-0.62;68.21;95419.97;5099719;28;20632;-71
2024/01/09 09:56:12;;;;;;;13.68;12.48;;;;;;;-0.55;67.76;95420.50;5099573;28;20265;-71
2024/01/09 09:58:40;;;;;;;13.43;12.32;;;;;;;-0.53;67.90;95418.34;5099438;28;20224;-71
2024/01/09 10:01:10;;;;;;;15.95;14.65;;;;;;;-0.52;68.10;95414.56;5099856;28;20192;-71
2024/01/09 10:03:41;;;;;;;13.00;11.90;;;;;;;-0.49;67.96;95408.59;5099309;28;20199;-72
2024/01/09 10:06:09;;;;;;;8.88;8.07;;;;;;;-0.45;67.66;95416.16;5099213;28;20370;-71
2024/01/09 10:08:36;;;;;;;8.75;7.97;;;;;;;-0.53;67.24;95418.34;5099936;28;20192;-71
2024/01/09 10:11:03;;;;;;;8.15;7.55;;;;;;;-0.52;67.13;95411.03;5099760;28;20187;-72
2024/01/09 10:13:30;;;;;;;8.10;7.40;;;;;;;-0.65;65.84;95417.03;5099367;28;20234;-72
2024/01/09 10:15:59;;;;;;;8.40;7.68;;;;;;;-0.68;66.11;95417.59;5099499;28;20196;-72
2024/01/09 10:18:29;;;;;;;10.20;9.27;;;;;;;-0.62;66.66;95417.28;5098879;28;20631;-72
2024/01/09 10:20:57;;;;;;;7.25;6.65;;;;;;;-0.63;66.17;95421.06;5100009;28;20206;-72
2024/01/09 10:23:24;;;;;;;11.65;10.55;;;;;;;-0.61;65.84;95415.41;5099466;28;20245;-72
2024/01/09 10:25:51;;;;;;;12.82;11.63;;;;;;;-0.61;66.07;95421.63;5098914;28;20541;-71
2024/01/09 10:28:18;;;;;;;9.98;9.13;;;;;;;-0.58;66.18;95439.22;5099632;28;20207;-71
2024/01/09 10:30:46;;;;;;;9.30;8.50;;;;;;;-0.62;65.67;95428.13;5099237;28;20191;-71
2024/01/09 10:33:15;;;;;;;9.93;9.02;;;;;;;-0.66;65.75;95435.16;5100072;28;20303;-71
2024/01/09 10:35:42;;;;;;;10.80;9.82;;;;;;;-0.77;65.49;95434.38;5098894;28;20623;-71
2024/01/09 10:38:10;;;;;;;9.75;8.95;;;;;;;-0.91;65.60;95429.78;5099498;28;20284;-71
2024/01/09 10:40:38;;;;;;;11.05;9.95;;;;;;;-0.86;66.38;95436.00;5099586;28;20324;-72
2024/01/09 10:43:05;;;;;;;11.43;10.43;;;;;;;-0.87;66.19;95441.69;5099029;28;20199;-72
2024/01/09 10:45:32;;;;;;;12.20;11.10;;;;;;;-0.97;66.56;95447.94;5098684;28;20196;-72
2024/01/09 10:48:00;;;;;;;8.45;7.65;;;;;;;-1.14;65.89;95448.19;5099241;28;20213;-72
2024/01/09 10:50:29;;;;;;;9.43;8.63;;;;;;;-1.08;66.55;95457.94;5098847;28;20237;-72
2024/01/09 10:52:56;;;;;;;9.27;8.40;;;;;;;-1.23;66.23;95455.22;5098534;28;20208;-71
2024/01/09 10:55:24;;;;;;;8.00;7.38;;;;;;;-1.31;66.29;95471.97;5098677;28;20225;-71
2024/01/09 10:57:51;;;;;;;8.80;8.00;;;;;;;-1.51;66.32;95462.75;5098503;28;20227;-72
2024/01/09 11:00:19;;;;;;;9.88;8.98;;;;;;;-1.59;67.27;95474.09;5098409;28;20551;-75
2024/01/09 11:02:47;;;;;;;8.45;7.75;;;;;;;-1.73;67.06;95472.97;5098956;28;20216;-75
2024/01/09 11:05:14;;;;;;;9.27;8.48;;;;;;;-1.78;67.82;95476.47;5098846;28;20628;-75
2024/01/09 11:07:44;;;;;;;10.85;9.95;;;;;;;-1.66;67.88;95480.84;5098563;28;20315;-75
2024/01/09 11:10:16;;;;;;;10.63;9.73;;;;;;;-1.58;67.99;95488.44;5098384;28;20215;-75
2024/01/09 11:12:47;;;;;;;11.48;10.48;;;;;;;-1.54;67.39;95486.81;5098171;28;20207;-75
2024/01/09 11:15:18;;;;;;;9.18;8.40;;;;;;;-1.50;66.89;95496.84;5111845;27;20230;-72
2024/01/09 11:17:46;;;;;;;9.93;8.93;;;;;;;-1.43;67.04;95491.16;5119054;27;20215;-74
2024/01/09 11:20:16;;;;;;;10.82;9.93;;;;;;;-1.47;66.40;95493.59;5118580;27;20306;-74
2024/01/09 11:22:44;;;;;;;11.73;10.77;;;;;;;-1.57;65.22;95500.88;5118796;27;20298;-74
2024/01/09 11:25:15;;;;;;;11.10;10.20;;;;;;;-1.61;65.68;95500.59;5119198;27;20209;-74
2024/01/09 11:27:47;;;;;;;11.07;10.10;;;;;;;-1.69;66.37;95509.22;5118701;27;20622;-74
2024/01/09 11:30:17;;;;;;;10.13;9.23;;;;;;;-1.76;65.83;95505.94;5118342;27;20198;-74
2024/01/09 11:32:44;;;;;;;9.57;8.73;;;;;;;-1.96;65.52;95512.91;5119016;28;20190;-74